Time;durP1;ratioP1;P1;durP2;ratioP2;P2;SDS_P1;SDS_P2;PMS_P1;PMS_P2;Temp;Humidity;BMP_temperature;BMP_pressure;BME280_temperature;BME280_humidity;BME280_pressure;Samples;Min_cycle;Max_cycle;Signal;HPM_P1;HPM_P2
2023/02/04 00:00:51;;;;;;;5.90;3.70;;;;;;;-1.48;77.97;99351.09;108997;1257;59172;-76
2023/02/04 00:03:18;;;;;;;5.40;3.20;;;;;;;-1.38;77.86;99349.08;108976;1257;73253;-75
2023/02/04 00:05:47;;;;;;;5.90;4.00;;;;;;;-1.37;78.07;99352.31;108980;1257;70056;-75
2023/02/04 00:08:14;;;;;;;5.00;3.70;;;;;;;-1.37;78.36;99357.36;108807;1257;72686;-75
2023/02/04 00:10:42;;;;;;;7.00;3.80;;;;;;;-1.36;78.44;99353.27;108747;1257;57269;-76
2023/02/04 00:13:08;;;;;;;5.10;3.60;;;;;;;-1.34;78.58;99355.73;108766;1258;59342;-76
2023/02/04 00:15:35;;;;;;;8.70;4.70;;;;;;;-1.33;78.79;99354.28;108806;1257;70869;-76
2023/02/04 00:18:04;;;;;;;6.70;4.80;;;;;;;-1.31;78.88;99351.02;108800;1257;70094;-75
2023/02/04 00:20:30;;;;;;;6.50;4.00;;;;;;;-1.30;78.84;99351.98;108743;1257;72477;-76
2023/02/04 00:23:00;;;;;;;7.70;4.60;;;;;;;-1.16;78.73;99350.88;108630;1257;60254;-76
2023/02/04 00:25:27;;;;;;;7.10;4.50;;;;;;;-1.03;78.21;99352.98;108648;1257;60248;-75
2023/02/04 00:27:54;;;;;;;9.00;6.00;;;;;;;-1.03;78.18;99354.17;108588;1257;71626;-76
2023/02/04 00:30:21;;;;;;;7.40;5.90;;;;;;;-1.02;78.49;99352.88;107356;1264;70029;-75
2023/02/04 00:32:48;;;;;;;11.80;8.30;;;;;;;-1.01;78.42;99350.75;108201;1258;74135;-76
2023/02/04 00:35:15;;;;;;;10.10;7.30;;;;;;;-1.00;78.51;99346.67;108406;1258;59162;-75
2023/02/04 00:37:42;;;;;;;9.60;6.50;;;;;;;-0.98;78.75;99345.52;108153;1259;60298;-76
2023/02/04 00:40:10;;;;;;;9.00;6.30;;;;;;;-0.98;78.38;99345.16;107448;1258;71751;-76
2023/02/04 00:42:39;;;;;;;10.30;6.00;;;;;;;-1.00;78.29;99348.08;107580;1258;69307;-76
2023/02/04 00:45:05;;;;;;;10.60;7.30;;;;;;;-0.91;78.28;99348.88;107805;1258;73594;-75
2023/02/04 00:47:33;;;;;;;10.60;6.80;;;;;;;-0.79;78.22;99346.84;107217;1257;60611;-76
2023/02/04 00:50:00;;;;;;;9.40;6.90;;;;;;;-0.77;78.32;99344.25;106149;1259;60358;-75
2023/02/04 00:52:26;;;;;;;10.40;6.30;;;;;;;-0.78;78.31;99346.55;105619;1257;72650;-76
2023/02/04 00:54:53;;;;;;;13.70;9.00;;;;;;;-0.84;78.32;99345.77;105519;1258;69508;-76
2023/02/04 00:57:20;;;;;;;12.30;9.10;;;;;;;-0.90;78.28;99343.76;105438;1257;72830;-75
2023/02/04 00:59:47;;;;;;;12.20;8.80;;;;;;;-0.92;78.46;99344.26;105381;1257;61047;-76
2023/02/04 01:02:14;;;;;;;12.60;8.90;;;;;;;-0.92;78.71;99346.00;105405;1258;61122;-75
2023/02/04 01:04:42;;;;;;;11.20;7.80;;;;;;;-0.93;78.48;99344.81;105632;1257;75120;-75
2023/02/04 01:07:09;;;;;;;8.30;5.90;;;;;;;-0.84;78.26;99340.75;105655;1257;70488;-74
2023/02/04 01:09:36;;;;;;;8.30;5.50;;;;;;;-0.76;77.90;99340.16;105630;1257;72626;-75
2023/02/04 01:12:08;;;;;;;5.90;4.50;;;;;;;-0.79;77.64;99341.98;105652;1256;60795;-74
2023/02/04 01:14:35;;;;;;;5.20;3.70;;;;;;;-0.88;77.60;99340.82;105603;1256;61508;-74
2023/02/04 01:17:04;;;;;;;5.10;3.40;;;;;;;-0.95;77.33;99343.95;105675;1257;73744;-76
2023/02/04 01:19:31;;;;;;;6.40;3.40;;;;;;;-1.01;77.61;99343.92;105431;1258;71747;-75
2023/02/04 01:21:58;;;;;;;4.20;2.80;;;;;;;-1.04;77.34;99347.45;105504;1259;73710;-74
2023/02/04 05:23:08;;;;;;;4.20;3.60;;;;;;;-1.53;80.96;99441.76;104800;1281;71780;-80
2023/02/04 05:25:35;;;;;;;4.90;3.60;;;;;;;-1.59;81.18;99443.04;105318;1265;69144;-79
2023/02/04 05:28:02;;;;;;;9.00;4.90;;;;;;;-1.64;81.30;99445.20;105594;1266;73369;-78
2023/02/04 05:30:29;;;;;;;6.30;3.70;;;;;;;-1.67;81.32;99449.94;105979;1256;59245;-79
2023/02/04 05:32:56;;;;;;;7.70;4.10;;;;;;;-1.69;81.36;99456.64;105836;1254;60574;-78
2023/02/04 05:35:23;;;;;;;8.70;3.80;;;;;;;-1.60;81.37;99458.36;105755;1256;74012;-80
2023/02/04 05:37:49;;;;;;;6.70;4.20;;;;;;;-1.47;81.27;99460.50;106393;1254;69536;-77
2023/02/04 05:40:16;;;;;;;7.30;3.80;;;;;;;-1.46;81.22;99461.07;105803;1257;72597;-81
2023/02/04 05:42:43;;;;;;;6.80;4.20;;;;;;;-1.45;81.63;99464.84;105838;1254;60636;-81
2023/02/04 05:45:15;;;;;;;7.40;4.70;;;;;;;-1.43;81.58;99462.25;105919;1254;62108;-81
2023/02/04 05:47:44;;;;;;;15.00;11.30;;;;;;;-1.41;81.27;99464.91;106081;1258;70816;-85
2023/02/04 05:50:11;;;;;;;15.20;10.80;;;;;;;-1.43;81.36;99470.96;105895;1259;69679;-81
2023/02/04 06:05:34;;;;;;;7.00;4.50;;;;;;;-0.59;79.97;99490.67;103885;1282;614775;-81
2023/02/04 06:08:01;;;;;;;7.80;4.40;;;;;;;-0.29;79.20;99496.29;105005;1267;132921;-81
2023/02/04 06:10:30;;;;;;;11.20;5.20;;;;;;;-0.32;79.22;99494.23;105203;1264;61182;-80
2023/02/04 06:12:59;;;;;;;8.60;5.60;;;;;;;-0.39;79.01;99494.72;105658;1269;73344;-81
2023/02/04 06:15:26;;;;;;;8.80;5.30;;;;;;;-0.46;78.91;99499.56;107112;1266;70924;-80
2023/02/04 06:17:53;;;;;;;8.20;4.60;;;;;;;-0.55;78.79;99499.27;107943;1266;70699;-81
2023/02/04 06:20:21;;;;;;;7.40;4.20;;;;;;;-0.68;78.61;99506.56;107001;1266;62469;-80
2023/02/04 06:22:50;;;;;;;7.60;4.80;;;;;;;-0.71;78.52;99509.59;105930;1265;61632;-82
2023/02/04 06:25:17;;;;;;;7.80;4.60;;;;;;;-0.76;78.53;99509.92;105729;1260;70763;-81
2023/02/04 06:27:44;;;;;;;9.80;5.60;;;;;;;-0.88;79.04;99505.64;105784;1263;70879;-82
2023/02/04 06:30:12;;;;;;;7.30;5.40;;;;;;;-0.95;79.53;99507.02;106848;1263;73593;-82
2023/02/04 06:32:40;;;;;;;7.60;4.80;;;;;;;-1.01;79.66;99509.45;107464;1258;59650;-81
2023/02/04 06:35:07;;;;;;;12.90;9.40;;;;;;;-1.07;79.80;99513.85;108777;1254;59587;-82
2023/02/04 06:37:34;;;;;;;9.70;7.60;;;;;;;-1.16;80.13;99517.70;108303;1254;71800;-80
2023/02/04 06:40:01;;;;;;;13.10;7.70;;;;;;;-1.19;80.37;99519.30;109070;1254;69122;-80
2023/02/04 06:42:29;;;;;;;8.80;6.90;;;;;;;-1.06;80.62;99525.42;107359;1254;70938;-81
2023/02/04 06:44:57;;;;;;;12.30;7.80;;;;;;;-0.95;80.43;99527.14;106810;1259;59597;-79
2023/02/04 06:47:24;;;;;;;11.30;8.60;;;;;;;-0.92;80.61;99530.62;106564;1254;61265;-80
2023/02/04 06:49:51;;;;;;;12.80;8.60;;;;;;;-0.92;80.54;99534.42;106327;1253;72476;-81
2023/02/04 06:52:18;;;;;;;8.50;6.30;;;;;;;-0.92;80.54;99536.34;105984;1254;70349;-81
2023/02/04 06:54:45;;;;;;;10.30;5.70;;;;;;;-1.00;80.30;99541.02;107163;1260;72863;-80
2023/02/04 06:57:12;;;;;;;11.20;5.60;;;;;;;-1.09;80.43;99545.60;106519;1262;59643;-80
2023/02/04 06:59:39;;;;;;;7.20;4.90;;;;;;;-1.12;80.61;99546.67;106152;1255;61198;-80
2023/02/04 07:02:06;;;;;;;8.40;5.00;;;;;;;-1.02;80.70;99543.41;105765;1263;73298;-81
2023/02/04 07:04:34;;;;;;;8.90;5.60;;;;;;;-0.91;80.58;99549.98;105623;1260;71425;-81
2023/02/04 07:07:01;;;;;;;8.70;5.30;;;;;;;-0.92;80.59;99547.84;105798;1262;72397;-81
2023/02/04 07:09:28;;;;;;;9.10;5.60;;;;;;;-0.98;80.63;99549.78;105652;1263;59782;-80
2023/02/04 07:11:54;;;;;;;6.60;4.40;;;;;;;-1.02;81.01;99554.35;105703;1255;61421;-80
2023/02/04 07:14:21;;;;;;;6.40;4.80;;;;;;;-1.06;81.27;99551.33;106222;1259;73238;-80
2023/02/04 07:16:48;;;;;;;10.30;6.40;;;;;;;-1.09;81.54;99556.72;106629;1257;71618;-82
2023/02/04 07:19:16;;;;;;;7.80;5.20;;;;;;;-1.11;81.33;99558.74;108821;1257;72115;-82
2023/02/04 07:21:44;;;;;;;7.60;4.90;;;;;;;-1.04;80.97;99559.51;108621;1255;59899;-82
2023/02/04 07:24:10;;;;;;;8.50;5.60;;;;;;;-0.94;80.96;99560.64;107091;1261;59586;-81
2023/02/04 07:26:40;;;;;;;5.90;4.60;;;;;;;-0.93;81.11;99563.00;106373;1260;72217;-81
2023/02/04 07:29:06;;;;;;;6.40;4.40;;;;;;;-0.94;80.94;99564.96;106261;1257;71521;-82
2023/02/04 07:31:41;;;;;;;6.60;4.70;;;;;;;-0.99;80.75;99564.45;105647;1260;72330;-82
2023/02/04 07:34:08;;;;;;;6.50;4.50;;;;;;;-1.06;80.90;99564.03;106157;1257;60696;-81
2023/02/04 07:36:35;;;;;;;7.00;4.90;;;;;;;-1.10;80.82;99563.77;106675;1256;59960;-81
2023/02/04 07:39:02;;;;;;;6.00;4.20;;;;;;;-1.10;81.05;99562.52;105927;1262;73593;-80
2023/02/04 07:41:29;;;;;;;7.80;5.60;;;;;;;-0.96;80.73;99563.02;105603;1259;71680;-82
2023/02/04 07:43:56;;;;;;;7.30;4.70;;;;;;;-0.82;80.59;99562.30;105811;1261;73775;-82
2023/02/04 07:46:23;;;;;;;7.70;5.20;;;;;;;-0.80;80.43;99563.21;105566;1271;59674;-81
2023/02/04 07:48:50;;;;;;;8.90;6.30;;;;;;;-0.81;80.15;99559.45;105571;1258;59610;-81
2023/02/04 07:51:17;;;;;;;8.80;6.00;;;;;;;-0.82;80.29;99559.32;105519;1258;73952;-81
2023/02/04 07:53:44;;;;;;;18.10;12.30;;;;;;;-0.81;79.95;99561.73;105663;1260;69411;-80
2023/02/04 07:56:11;;;;;;;14.70;9.70;;;;;;;-0.84;79.37;99567.62;105572;1261;71588;-81
2023/02/04 07:58:38;;;;;;;9.30;6.40;;;;;;;-0.87;79.08;99571.30;105745;1256;62309;-79
2023/02/04 08:01:05;;;;;;;20.50;11.50;;;;;;;-0.78;78.59;99574.02;106103;1254;60072;-80
2023/02/04 08:03:32;;;;;;;7.30;4.60;;;;;;;-0.68;78.32;99573.23;106135;1258;74125;-80
2023/02/04 08:06:00;;;;;;;5.90;3.60;;;;;;;-0.66;78.40;99572.20;105701;1260;71331;-80
2023/02/04 08:08:27;;;;;;;5.10;3.20;;;;;;;-0.64;78.26;99574.55;105628;1261;73707;-80
2023/02/04 08:10:58;;;;;;;6.20;4.60;;;;;;;-0.62;78.09;99576.98;106018;1254;60438;-80
2023/02/04 08:13:25;;;;;;;10.20;5.20;;;;;;;-0.59;78.02;99579.05;105812;1254;60397;-80
2023/02/04 08:15:52;;;;;;;9.20;6.30;;;;;;;-0.57;77.78;99581.17;105913;1257;72124;-80
2023/02/04 08:18:19;;;;;;;11.00;6.40;;;;;;;-0.61;77.13;99587.56;106169;1260;70816;-80
2023/02/04 08:20:46;;;;;;;7.60;4.40;;;;;;;-0.71;76.92;99591.12;106735;1260;73325;-79
2023/02/04 08:23:12;;;;;;;9.30;4.80;;;;;;;-0.67;76.97;99592.76;108376;1254;61837;-78
2023/02/04 08:25:39;;;;;;;6.20;4.20;;;;;;;-0.58;76.75;99594.11;108509;1256;60305;-79
2023/02/04 08:28:07;;;;;;;7.20;4.50;;;;;;;-0.55;77.06;99594.30;107096;1260;73892;-82
2023/02/04 08:30:34;;;;;;;9.50;5.30;;;;;;;-0.52;77.05;99595.67;106287;1254;70065;-81
2023/02/04 08:33:01;;;;;;;16.30;9.20;;;;;;;-0.51;76.85;99599.25;105952;1260;72731;-80
2023/02/04 08:35:28;;;;;;;18.60;9.30;;;;;;;-0.54;76.37;99602.55;105990;1260;60645;-80
2023/02/04 08:37:55;;;;;;;15.40;8.40;;;;;;;-0.58;76.36;99606.14;105859;1258;59554;-80
2023/02/04 08:40:22;;;;;;;20.60;11.40;;;;;;;-0.64;76.43;99608.05;106033;1260;74027;-80
2023/02/04 08:42:49;;;;;;;29.00;12.80;;;;;;;-0.64;76.54;99613.31;105753;1260;71384;-82
2023/02/04 08:45:16;;;;;;;41.60;18.50;;;;;;;-0.56;76.60;99613.98;105792;1259;73557;-81
2023/02/04 08:47:44;;;;;;;35.80;17.80;;;;;;;-0.41;76.73;99616.71;105791;1254;60804;-80
2023/02/04 08:50:10;;;;;;;22.80;13.00;;;;;;;-0.38;76.72;99620.66;105922;1255;60802;-80
2023/02/04 08:52:39;;;;;;;19.40;11.60;;;;;;;-0.37;76.48;99625.13;105944;1254;73975;-80
2023/02/04 08:55:07;;;;;;;16.30;10.20;;;;;;;-0.39;76.38;99625.27;106009;1254;71582;-80
2023/02/04 08:57:36;;;;;;;10.30;6.90;;;;;;;-0.41;76.13;99627.13;106139;1254;72412;-80
2023/02/04 09:00:02;;;;;;;13.30;10.50;;;;;;;-0.44;75.89;99625.59;106748;1254;59546;-78
2023/02/04 09:02:30;;;;;;;10.10;7.70;;;;;;;-0.50;75.82;99624.60;106477;1254;59659;-80
2023/02/04 09:04:56;;;;;;;12.00;7.90;;;;;;;-0.59;75.84;99625.48;105689;1261;72862;-79
2023/02/04 09:07:23;;;;;;;7.00;5.00;;;;;;;-0.63;76.12;99629.95;105500;1258;71316;-80
2023/02/04 09:09:50;;;;;;;5.20;4.30;;;;;;;-0.57;75.58;99623.46;105826;1258;73939;-80
2023/02/04 09:12:18;;;;;;;5.50;3.70;;;;;;;-0.49;75.55;99629.41;105686;1257;59695;-80
2023/02/04 09:14:45;;;;;;;6.00;3.10;;;;;;;-0.51;75.76;99629.15;105847;1257;61520;-79
2023/02/04 09:17:12;;;;;;;5.30;3.30;;;;;;;-0.55;75.51;99631.03;106105;1260;72416;-79
2023/02/04 09:19:39;;;;;;;4.00;2.90;;;;;;;-0.64;75.42;99633.27;105669;1256;69609;-81
2023/02/04 09:22:06;;;;;;;4.60;2.90;;;;;;;-0.69;75.28;99633.95;105791;1260;72081;-79
2023/02/04 09:24:33;;;;;;;5.50;3.20;;;;;;;-0.76;75.08;99633.44;105936;1256;60585;-79
2023/02/04 09:27:00;;;;;;;5.00;3.50;;;;;;;-0.86;75.30;99632.43;106982;1254;60279;-81
2023/02/04 09:29:26;;;;;;;5.80;3.60;;;;;;;-0.93;75.28;99634.96;107521;1260;72676;-80
2023/02/04 09:31:54;;;;;;;4.90;3.60;;;;;;;-0.88;75.52;99632.92;106355;1254;70256;-80
2023/02/04 09:34:21;;;;;;;5.00;3.80;;;;;;;-0.79;75.45;99633.94;105906;1254;72186;-80
2023/02/04 09:36:48;;;;;;;4.80;3.50;;;;;;;-0.82;75.62;99634.60;106221;1260;59638;-79
2023/02/04 09:39:15;;;;;;;4.60;2.90;;;;;;;-0.86;75.66;99625.81;105749;1255;61271;-80
2023/02/04 09:41:42;;;;;;;3.00;2.50;;;;;;;-0.88;75.72;99627.88;105937;1259;73942;-79
2023/02/04 09:44:13;;;;;;;5.10;2.90;;;;;;;-0.91;75.81;99628.61;106987;1254;70217;-81
2023/02/04 09:46:43;;;;;;;5.20;3.40;;;;;;;-0.91;75.82;99632.09;105986;1258;72709;-81
2023/02/04 09:49:10;;;;;;;5.20;3.30;;;;;;;-0.93;75.81;99634.66;105766;1255;60344;-80
2023/02/04 09:51:37;;;;;;;4.30;3.30;;;;;;;-0.99;75.61;99634.99;105478;1261;61699;-79
2023/02/04 09:54:11;;;;;;;4.10;3.30;;;;;;;-0.91;75.80;99637.96;105792;1259;73961;-80
2023/02/04 09:56:38;;;;;;;6.30;3.30;;;;;;;-0.82;75.80;99641.77;106627;1260;70055;-80
2023/02/04 09:59:15;;;;;;;5.60;4.40;;;;;;;-0.87;75.69;99637.91;106270;1259;73605;-79
2023/02/04 10:01:42;;;;;;;6.70;5.10;;;;;;;-0.93;76.04;99643.71;105826;1254;59641;-81
2023/02/04 10:04:11;;;;;;;6.80;5.30;;;;;;;-0.94;76.40;99643.41;105565;1272;60271;-79
2023/02/04 10:06:39;;;;;;;4.80;3.90;;;;;;;-0.96;76.40;99646.46;105818;1254;73258;-81
2023/02/04 10:09:09;;;;;;;4.40;3.10;;;;;;;-1.02;76.13;99645.98;105921;1254;70986;-78
2023/02/04 10:11:37;;;;;;;4.10;2.90;;;;;;;-1.10;76.20;99652.02;105644;1262;72896;-79
2023/02/04 10:14:04;;;;;;;4.30;3.40;;;;;;;-1.04;76.38;99654.45;105838;1254;62424;-79
2023/02/04 10:16:32;;;;;;;3.30;2.30;;;;;;;-0.94;76.36;99648.44;106293;1260;60530;-82
2023/02/04 10:19:03;;;;;;;4.60;2.90;;;;;;;-1.00;76.12;99654.01;105633;1257;73000;-80
2023/02/04 10:21:31;;;;;;;4.40;3.10;;;;;;;-1.11;76.54;99656.48;105858;1254;71671;-81
2023/02/04 10:24:00;;;;;;;6.20;5.50;;;;;;;-1.21;76.99;99659.32;106227;1257;73020;-78
2023/02/04 10:26:29;;;;;;;5.10;3.70;;;;;;;-1.23;77.25;99664.34;106953;1254;60450;-80
2023/02/04 10:29:07;;;;;;;4.50;3.60;;;;;;;-1.26;77.53;99665.17;105836;1257;60386;-79
2023/02/04 10:31:37;;;;;;;4.30;3.10;;;;;;;-1.28;77.75;99671.06;106275;1262;74227;-79
2023/02/04 10:34:05;;;;;;;5.40;2.90;;;;;;;-1.18;77.90;99672.71;107909;1254;71956;-79
2023/02/04 10:36:32;;;;;;;4.10;2.70;;;;;;;-1.05;78.08;99678.31;108351;1259;71198;-80
2023/02/04 10:39:09;;;;;;;4.30;3.40;;;;;;;-1.00;78.60;99678.55;106198;1256;61791;-82
2023/02/04 10:41:38;;;;;;;5.20;3.50;;;;;;;-0.96;78.70;99686.81;106138;1256;61724;-80
2023/02/04 10:44:08;;;;;;;3.60;3.00;;;;;;;-0.98;78.59;99687.50;106678;1256;72844;-80
2023/02/04 10:46:36;;;;;;;4.30;3.10;;;;;;;-0.99;78.90;99691.20;107201;1254;69405;-79
2023/02/04 10:49:04;;;;;;;4.60;3.80;;;;;;;-1.01;78.70;99691.42;107390;1256;72429;-81
2023/02/04 10:51:31;;;;;;;4.60;2.80;;;;;;;-1.02;78.31;99694.17;107711;1256;61233;-80
2023/02/04 10:56:44;;;;;;;5.40;3.20;;;;;;;-1.03;78.10;99703.25;106247;1260;73966;-79
2023/02/04 10:59:20;;;;;;;4.90;3.40;;;;;;;-1.11;78.18;99706.16;106381;1254;70892;-80
2023/02/04 11:01:48;;;;;;;6.90;3.90;;;;;;;-1.17;78.09;99709.67;106483;1254;72993;-80
2023/02/04 11:04:14;;;;;;;5.90;4.40;;;;;;;-1.25;77.75;99713.79;107875;1257;59821;-81
2023/02/04 11:06:41;;;;;;;6.40;4.80;;;;;;;-1.32;77.88;99718.39;106488;1254;60483;-80
2023/02/04 11:09:13;;;;;;;6.20;4.90;;;;;;;-1.35;77.76;99717.55;107325;1254;73992;-79
2023/02/04 11:11:48;;;;;;;5.10;3.70;;;;;;;-1.25;77.60;99718.67;107974;1255;70243;-80
2023/02/04 11:14:25;;;;;;;4.80;3.50;;;;;;;-1.11;77.38;99721.80;106786;1254;73153;-80
2023/02/04 11:16:53;;;;;;;4.60;3.50;;;;;;;-1.07;77.06;99722.97;105939;1260;60656;-80
2023/02/04 11:19:37;;;;;;;7.10;6.10;;;;;;;-1.06;76.84;99722.91;106137;1256;60578;-82
2023/02/04 11:22:05;;;;;;;;;;;;;;;-1.02;76.24;99723.86;105949;1254;74320;-80
2023/02/04 11:24:33;;;;;;;9.30;8.10;;;;;;;-0.98;75.67;99724.84;106304;1254;71912;-80
2023/02/04 11:27:19;;;;;;;10.20;7.10;;;;;;;-0.94;75.35;99726.15;106283;1257;72919;-81
2023/02/04 11:29:46;;;;;;;8.00;5.90;;;;;;;-0.88;74.70;99729.23;106098;1254;60437;-80
2023/02/04 11:32:55;;;;;;;7.50;6.00;;;;;;;-0.85;74.26;99729.60;106164;1254;60462;-80
2023/02/04 11:35:27;;;;;;;4.50;3.20;;;;;;;-0.84;72.90;99731.98;106206;1264;72007;-79
2023/02/04 11:37:54;;;;;;;4.90;3.40;;;;;;;-0.87;71.87;99732.88;107556;1254;70164;-79
2023/02/04 11:40:29;;;;;;;3.90;2.80;;;;;;;-0.88;71.81;99734.48;108185;1254;72529;-80
2023/02/04 11:43:07;;;;;;;4.00;2.60;;;;;;;-0.82;71.82;99736.02;107805;1256;60305;-81
2023/02/04 11:45:34;;;;;;;3.60;2.50;;;;;;;-0.64;70.65;99740.10;106388;1256;60446;-81
2023/02/04 11:48:09;;;;;;;5.60;3.60;;;;;;;-0.49;70.85;99739.82;107730;1254;73888;-85
2023/02/04 11:50:40;;;;;;;4.40;3.30;;;;;;;-0.38;70.59;99739.54;107613;1259;70404;-82
2023/02/04 11:53:10;;;;;;;;;;;;;;;-0.28;70.57;99744.09;106630;1258;72652;-81
2023/02/04 11:55:44;;;;;;;5.30;3.70;;;;;;;-0.19;70.45;99748.70;106502;1257;60528;-81
2023/02/04 11:58:15;;;;;;;4.60;3.50;;;;;;;-0.09;69.97;99754.67;106240;1256;60270;-77
2023/02/04 12:00:42;;;;;;;6.60;5.60;;;;;;;-0.05;69.47;99760.52;106061;1256;72927;-79
2023/02/04 12:03:29;;;;;;;6.20;5.20;;;;;;;-0.05;69.45;99763.85;106008;1256;70061;-80
2023/02/04 12:05:57;;;;;;;7.10;5.40;;;;;;;-0.09;69.05;99763.07;105740;1260;72559;-80
2023/02/04 12:08:29;;;;;;;6.10;5.10;;;;;;;-0.15;69.32;99762.23;105595;1256;60609;-80
2023/02/04 12:11:10;;;;;;;5.00;4.30;;;;;;;-0.14;69.67;99765.48;105808;1256;60423;-77
2023/02/04 12:13:47;;;;;;;4.20;3.80;;;;;;;-0.11;69.45;99763.05;105714;1256;73041;-80
2023/02/04 12:16:14;;;;;;;4.30;3.40;;;;;;;-0.11;69.43;99764.74;105826;1257;71494;-81
2023/02/04 12:18:41;;;;;;;4.90;3.70;;;;;;;-0.08;69.81;99771.66;105641;1260;73928;-77
2023/02/04 12:21:08;;;;;;;5.60;4.70;;;;;;;-0.03;69.84;99766.17;105689;1258;60664;-77
2023/02/04 12:23:34;;;;;;;4.30;3.60;;;;;;;0.04;70.28;99767.44;105635;1256;60436;-75
2023/02/04 12:26:01;;;;;;;3.60;2.90;;;;;;;0.20;69.60;99768.30;105425;1258;74207;-74
2023/02/04 12:28:28;;;;;;;4.00;3.50;;;;;;;0.31;69.09;99769.48;105799;1257;71466;-76
2023/02/04 12:30:55;;;;;;;7.00;3.80;;;;;;;0.31;68.95;99779.10;105661;1260;72546;-76
2023/02/04 12:33:24;;;;;;;4.90;3.90;;;;;;;0.26;69.29;99783.22;105475;1262;60473;-76
2023/02/04 12:35:51;;;;;;;6.30;5.00;;;;;;;0.30;69.69;99781.91;105610;1263;61590;-76
2023/02/04 12:38:18;;;;;;;8.60;5.10;;;;;;;0.37;69.71;99784.61;105607;1258;74873;-77
2023/02/04 12:40:46;;;;;;;7.10;5.60;;;;;;;0.40;69.68;99785.65;105958;1257;71378;-79
2023/02/04 12:43:13;;;;;;;8.90;6.90;;;;;;;0.42;70.01;99784.77;106823;1257;72892;-78
2023/02/04 12:45:44;;;;;;;10.50;7.40;;;;;;;0.48;70.14;99783.19;107972;1256;59597;-78
2023/02/04 12:48:12;;;;;;;9.30;7.10;;;;;;;0.48;70.01;99791.57;107090;1256;60549;-79
2023/02/04 12:50:41;;;;;;;11.60;8.10;;;;;;;0.43;70.26;99792.93;105716;1258;72083;-81
2023/02/04 12:53:08;;;;;;;8.00;6.60;;;;;;;0.38;70.37;99797.41;105597;1257;71081;-79
2023/02/04 12:55:36;;;;;;;8.00;5.80;;;;;;;0.34;70.42;99798.20;106066;1257;73572;-79
2023/02/04 12:58:03;;;;;;;6.10;4.50;;;;;;;0.28;70.56;99797.04;105804;1258;60493;-79
2023/02/04 13:00:30;;;;;;;6.40;4.50;;;;;;;0.33;70.32;99802.28;105784;1263;60617;-78
2023/02/04 13:02:57;;;;;;;6.00;4.20;;;;;;;0.37;69.92;99803.56;105690;1256;73758;-79
2023/02/04 13:05:24;;;;;;;7.90;5.10;;;;;;;0.31;69.99;99803.11;105910;1256;69238;-75
2023/02/04 13:07:51;;;;;;;9.50;5.20;;;;;;;0.29;70.12;99805.89;108533;1256;73587;-81
2023/02/04 13:10:25;;;;;;;6.50;4.60;;;;;;;0.23;69.57;99804.70;108347;1255;59891;-80
2023/02/04 13:12:54;;;;;;;4.30;3.50;;;;;;;0.14;68.56;99806.85;106440;1257;60898;-80
2023/02/04 13:15:21;;;;;;;4.90;3.00;;;;;;;0.02;67.50;99811.65;106224;1258;74132;-80
2023/02/04 13:17:48;;;;;;;3.50;2.50;;;;;;;-0.11;67.07;99817.70;106663;1259;69895;-79
2023/02/04 13:20:16;;;;;;;6.00;3.40;;;;;;;-0.21;66.47;99824.92;106536;1258;73860;-80
2023/02/04 13:22:43;;;;;;;3.60;3.10;;;;;;;-0.31;66.16;99822.05;105792;1256;60627;-80
2023/02/04 13:25:11;;;;;;;3.10;2.00;;;;;;;-0.40;65.55;99821.21;105662;1257;61090;-81
2023/02/04 13:27:38;;;;;;;3.60;2.20;;;;;;;-0.46;64.96;99821.45;105701;1257;74823;-81
2023/02/04 13:30:07;;;;;;;4.20;3.20;;;;;;;-0.58;64.33;99827.38;105572;1263;68403;-79
2023/02/04 13:32:34;;;;;;;3.90;2.60;;;;;;;-0.68;64.62;99829.42;105925;1256;73380;-81
2023/02/04 13:35:01;;;;;;;3.90;2.50;;;;;;;-0.75;64.38;99833.84;105594;1262;61977;-76
2023/02/04 13:37:28;;;;;;;4.10;2.90;;;;;;;-0.82;64.34;99841.23;105505;1257;61194;-76
2023/02/04 13:39:55;;;;;;;6.90;3.60;;;;;;;-0.88;64.92;99846.60;105486;1262;74445;-75
2023/02/04 13:42:21;;;;;;;7.20;4.00;;;;;;;-0.90;65.07;99850.75;105838;1257;71259;-75
2023/02/04 13:44:49;;;;;;;5.50;3.60;;;;;;;-0.94;64.83;99854.28;105782;1259;72455;-77
2023/02/04 13:47:15;;;;;;;5.60;3.70;;;;;;;-1.00;65.13;99854.46;105767;1259;60451;-77
2023/02/04 13:49:42;;;;;;;6.80;3.90;;;;;;;-1.03;65.48;99859.88;105988;1257;60498;-76
2023/02/04 13:52:10;;;;;;;8.00;4.50;;;;;;;-1.05;65.48;99864.00;107625;1260;74674;-78
2023/02/04 13:54:39;;;;;;;6.30;3.50;;;;;;;-1.09;65.39;99866.50;107212;1257;68458;-76
2023/02/04 13:57:07;;;;;;;6.40;4.30;;;;;;;-1.13;65.69;99869.67;106207;1259;72555;-81
2023/02/04 13:59:34;;;;;;;8.60;5.10;;;;;;;-1.17;65.98;99873.55;106731;1254;59532;-80
2023/02/04 14:02:01;;;;;;;8.80;5.00;;;;;;;-1.20;66.38;99875.83;107434;1256;60316;-79
2023/02/04 14:04:28;;;;;;;12.50;10.10;;;;;;;-1.23;66.63;99877.59;105843;1256;73336;-80
2023/02/04 14:06:55;;;;;;;12.10;6.60;;;;;;;-1.27;66.83;99873.29;105673;1257;69630;-79
2023/02/04 14:09:24;;;;;;;7.90;4.70;;;;;;;-1.33;66.71;99874.82;105534;1260;73409;-78
2023/02/04 14:11:51;;;;;;;6.50;3.90;;;;;;;-1.39;66.06;99875.90;105724;1257;60521;-78
2023/02/04 14:14:18;;;;;;;6.70;3.20;;;;;;;-1.47;66.00;99881.73;105695;1257;60543;-78
2023/02/04 14:16:45;;;;;;;5.00;3.20;;;;;;;-1.52;65.56;99883.42;105467;1261;72738;-75
2023/02/04 14:19:13;;;;;;;5.00;3.10;;;;;;;-1.59;65.37;99883.61;105590;1258;68282;-75
2023/02/04 14:21:39;;;;;;;5.10;3.00;;;;;;;-1.66;65.30;99892.31;105579;1260;73377;-75
2023/02/04 14:24:06;;;;;;;6.20;2.90;;;;;;;-1.72;65.35;99894.96;105537;1255;61345;-75
2023/02/04 14:26:33;;;;;;;5.70;3.10;;;;;;;-1.79;65.31;99898.98;105746;1260;60387;-77
2023/02/04 14:29:00;;;;;;;7.50;3.70;;;;;;;-1.84;65.88;99899.60;105561;1259;75083;-75
2023/02/04 14:31:26;;;;;;;6.90;4.30;;;;;;;-1.87;66.35;99901.16;105615;1257;71616;-74
2023/02/04 14:33:54;;;;;;;8.80;4.70;;;;;;;-1.91;66.81;99903.95;105500;1262;73455;-73
2023/02/04 14:36:21;;;;;;;8.30;4.20;;;;;;;-1.97;67.13;99909.50;105586;1257;60770;-76
2023/02/04 14:38:48;;;;;;;7.70;4.30;;;;;;;-2.05;67.57;99915.53;105775;1256;60552;-76
2023/02/04 14:41:18;;;;;;;5.10;3.20;;;;;;;-2.11;68.03;99922.64;105475;1262;74918;-79
2023/02/04 14:43:45;;;;;;;6.00;3.10;;;;;;;-2.04;68.08;99927.41;106146;1256;71017;-79
2023/02/04 14:46:13;;;;;;;5.60;2.90;;;;;;;-1.96;68.25;99925.47;106027;1256;72545;-81
2023/02/04 14:48:43;;;;;;;8.00;3.60;;;;;;;-2.00;68.51;99934.52;105694;1258;60494;-81
2023/02/04 14:51:10;;;;;;;8.40;3.30;;;;;;;-2.07;68.57;99938.52;106211;1259;60537;-80
2023/02/04 14:53:37;;;;;;;8.10;4.10;;;;;;;-2.12;68.60;99938.44;106480;1257;74727;-80
2023/02/04 14:56:06;;;;;;;9.80;4.00;;;;;;;-2.17;68.67;99940.24;108221;1256;70589;-79
2023/02/04 14:58:33;;;;;;;10.10;4.50;;;;;;;-2.21;68.52;99939.08;108850;1255;71502;-81
2023/02/04 15:01:00;;;;;;;7.80;3.80;;;;;;;-2.24;68.81;99933.91;107953;1260;60560;-80
2023/02/04 15:03:27;;;;;;;7.40;3.10;;;;;;;-2.26;68.92;99936.10;106053;1261;60432;-79
2023/02/04 15:05:54;;;;;;;5.90;2.80;;;;;;;-2.31;68.38;99939.99;106304;1257;72312;-79
2023/02/04 15:08:21;;;;;;;5.40;2.80;;;;;;;-2.37;68.04;99942.38;105784;1257;69384;-81
2023/02/04 15:10:48;;;;;;;5.90;3.30;;;;;;;-2.44;68.17;99948.80;105585;1257;72851;-80
2023/02/04 15:13:15;;;;;;;4.00;2.90;;;;;;;-2.49;68.17;99953.27;105620;1257;60576;-80
2023/02/04 15:15:43;;;;;;;6.80;4.10;;;;;;;-2.55;68.15;99955.48;105564;1256;61087;-80
2023/02/04 15:18:10;;;;;;;6.30;4.40;;;;;;;-2.60;68.43;99958.14;106383;1257;73248;-79
2023/02/04 15:20:37;;;;;;;8.10;5.80;;;;;;;-2.63;68.55;99963.35;106534;1259;70334;-79
2023/02/04 15:23:04;;;;;;;9.30;5.70;;;;;;;-2.66;68.52;99966.08;105669;1257;72694;-78
2023/02/04 15:25:31;;;;;;;7.20;5.60;;;;;;;-2.68;68.38;99970.71;105855;1257;61429;-78
2023/02/04 15:27:59;;;;;;;5.50;4.10;;;;;;;-2.72;68.63;99970.02;105854;1257;61415;-77
2023/02/04 15:30:25;;;;;;;11.70;4.60;;;;;;;-2.75;68.81;99969.98;105768;1257;71621;-78
2023/02/04 15:32:53;;;;;;;8.50;4.10;;;;;;;-2.77;68.86;99979.27;105652;1257;70460;-78
2023/02/04 15:35:20;;;;;;;6.50;3.70;;;;;;;-2.76;68.65;99982.23;106137;1257;73871;-79
2023/02/04 15:37:48;;;;;;;12.20;4.70;;;;;;;-2.67;68.47;99982.59;105686;1259;61051;-75
2023/02/04 15:40:16;;;;;;;8.80;4.70;;;;;;;-2.56;68.26;99990.37;105628;1259;61220;-77
2023/02/04 15:42:43;;;;;;;12.10;4.60;;;;;;;-2.59;68.18;99991.52;105540;1262;74825;-78